CheckWX is a tool to help pilots better visualize weather data.  It is not intended as a substitute for an official pre-flight weather briefing.

01:27:28 UTC

EBAW METAR
Antwerp International (Deurne) Airport
Antwerp, Belgium
Current

37 mins ago

EBAW 200050Z AUTO 23007KT 200V270 CAVOK 14/11 Q1020
Observed
Aug-20 @ 00:50 UTC
Wind
  • 230° at 7 KTS
Visibility
10,000+ meters
Flight Rules
VFR
Cloud Levels
  • Clear skies
Temperature
14°C / 57°F
Dewpoint
11°C / 52°F
Humidity
82%
Altimeter
30.12" Hg
Pressure
1019.92 hPa
Previous

1 hour ago

EBAW 200020Z AUTO 22007KT CAVOK 14/10 Q1020
Observed
Aug-20 @ 00:20 UTC
Wind
  • 220° at 7 KTS
Visibility
10,000+ meters
Flight Rules
VFR
Cloud Levels
  • Clear skies
Temperature
14°C / 57°F
Dewpoint
10°C / 50°F
Humidity
77%
Altimeter
30.12" Hg
Pressure
1019.92 hPa
Previous

2 hours ago

EBAW 192350Z AUTO 23006KT CAVOK 14/10 Q1020
Observed
Aug-19 @ 23:50 UTC
Wind
  • 230° at 6 KTS
Visibility
10,000+ meters
Flight Rules
VFR
Cloud Levels
  • Clear skies
Temperature
14°C / 57°F
Dewpoint
10°C / 50°F
Humidity
77%
Altimeter
30.12" Hg
Pressure
1019.92 hPa